createdAt,value
2019-05-05T00:01:49.690Z,8.07
2019-05-05T00:04:20.389Z,7.80
2019-05-05T00:06:49.406Z,6.30
2019-05-05T00:09:18.448Z,6.47
2019-05-05T00:11:51.941Z,5.77
2019-05-05T00:14:25.047Z,5.80
2019-05-05T00:17:14.490Z,5.70
2019-05-05T00:19:45.449Z,5.13
2019-05-05T00:22:15.213Z,5.57
2019-05-05T00:24:44.526Z,6.27
2019-05-05T00:27:14.986Z,5.87
2019-05-05T00:29:45.331Z,5.80
2019-05-05T00:32:15.320Z,6.57
2019-05-05T00:34:44.893Z,6.50
2019-05-05T00:37:15.139Z,7.27
2019-05-05T00:39:45.244Z,7.03
2019-05-05T00:42:15.546Z,8.10
2019-05-05T00:44:44.891Z,7.87
2019-05-05T00:47:18.298Z,7.97
2019-05-05T00:49:49.434Z,7.47
2019-05-05T00:52:19.033Z,7.50
2019-05-05T00:54:48.059Z,7.13
2019-05-05T00:57:17.160Z,7.67
2019-05-05T00:59:46.213Z,8.40
2019-05-05T01:02:16.975Z,8.67
2019-05-05T01:04:55.067Z,9.10
2019-05-05T01:07:24.812Z,7.73
2019-05-05T01:09:54.383Z,8.17
2019-05-05T01:12:24.452Z,8.53
2019-05-05T01:14:55.273Z,8.00
2019-05-05T01:17:25.273Z,7.70
2019-05-05T01:20:03.127Z,7.90
2019-05-05T01:22:25.708Z,7.57
2019-05-05T01:24:55.373Z,7.80
2019-05-05T01:27:25.555Z,7.80
2019-05-05T01:29:54.799Z,7.73
2019-05-05T01:32:30.953Z,7.13
2019-05-05T01:35:00.148Z,7.23
2019-05-05T01:37:34.823Z,7.90
2019-05-05T01:40:08.820Z,8.37
2019-05-05T01:42:37.820Z,7.30
2019-05-05T01:45:07.686Z,7.20
2019-05-05T01:47:36.767Z,7.63
2019-05-05T01:50:17.580Z,8.37
2019-05-05T01:52:38.491Z,8.20
2019-05-05T01:55:07.533Z,7.90
2019-05-05T01:57:37.020Z,7.67
2019-05-05T02:00:07.760Z,7.57
2019-05-05T02:02:36.825Z,7.30
2019-05-05T02:05:07.544Z,7.70
2019-05-05T02:07:36.972Z,7.60
2019-05-05T02:10:07.694Z,7.60
2019-05-05T02:12:36.839Z,7.80
2019-05-05T02:15:10.121Z,7.10
2019-05-05T02:17:39.313Z,7.97
2019-05-05T02:20:08.707Z,7.50
2019-05-05T02:22:37.718Z,7.33
2019-05-05T02:25:07.702Z,7.00
2019-05-05T02:27:36.788Z,7.27
2019-05-05T02:30:16.231Z,7.53
2019-05-05T02:32:47.501Z,7.90
2019-05-05T02:35:16.993Z,7.33
2019-05-05T02:37:46.308Z,7.60
2019-05-05T02:40:16.899Z,7.27
2019-05-05T02:42:48.168Z,7.00
2019-05-05T02:45:25.030Z,7.20
2019-05-05T02:48:05.872Z,6.80
2019-05-05T02:51:01.241Z,6.97
2019-05-05T02:53:29.459Z,7.00
2019-05-05T02:56:04.182Z,6.77
2019-05-05T02:58:35.581Z,7.03
2019-05-05T03:01:06.687Z,7.03
2019-05-05T03:03:39.005Z,7.40
2019-05-05T03:06:08.190Z,7.03
2019-05-05T03:08:40.199Z,7.60
2019-05-05T03:11:12.028Z,7.23
2019-05-05T03:13:44.210Z,7.70
2019-05-05T03:16:18.882Z,6.97
2019-05-05T03:18:49.072Z,7.40
2019-05-05T03:21:20.419Z,7.00
2019-05-05T03:23:50.475Z,7.63
2019-05-05T03:26:19.942Z,7.43
2019-05-05T03:28:57.087Z,7.43
2019-05-05T03:31:26.839Z,7.27
2019-05-05T03:33:56.513Z,7.40
2019-05-05T03:36:27.255Z,8.20
2019-05-05T03:38:56.731Z,7.13
2019-05-05T03:41:47.182Z,7.47
2019-05-05T03:44:30.930Z,7.20
2019-05-05T03:47:00.651Z,7.70
2019-05-05T03:49:31.018Z,7.13
2019-05-05T03:52:00.720Z,7.17
2019-05-05T03:54:30.583Z,7.67
2019-05-05T03:57:08.604Z,6.85
2019-05-05T03:59:39.815Z,7.33
2019-05-05T04:02:14.218Z,7.33
2019-05-05T04:04:47.709Z,7.87
2019-05-05T04:07:16.848Z,8.08
2019-05-05T04:09:46.579Z,7.63
2019-05-05T04:12:16.412Z,8.13
2019-05-05T04:14:45.990Z,7.55
2019-05-05T04:17:19.392Z,7.58
2019-05-05T04:19:50.087Z,8.05
2019-05-05T04:22:19.118Z,8.10
2019-05-05T04:24:48.638Z,7.72
2019-05-05T04:27:17.697Z,8.40
2019-05-05T04:29:46.762Z,8.10
2019-05-05T04:32:15.792Z,9.35
2019-05-05T04:34:44.836Z,8.68
2019-05-05T04:37:14.879Z,7.90
2019-05-05T04:39:44.632Z,7.35
2019-05-05T04:42:14.287Z,6.83
2019-05-05T04:44:44.932Z,7.50
2019-05-05T04:47:15.760Z,7.17
2019-05-05T04:49:46.445Z,7.00
2019-05-05T04:52:23.659Z,7.37
2019-05-05T04:54:55.862Z,6.43
2019-05-05T04:57:25.151Z,7.50
2019-05-05T04:59:54.319Z,6.90
2019-05-05T05:02:37.727Z,6.97
2019-05-05T05:05:11.849Z,7.10
2019-05-05T05:07:40.867Z,7.37
2019-05-05T05:10:10.461Z,7.40
2019-05-05T05:12:39.490Z,6.73
2019-05-05T05:15:09.071Z,7.87
2019-05-05T05:17:45.624Z,9.00
2019-05-05T05:20:14.716Z,7.50
2019-05-05T05:22:44.071Z,7.53
2019-05-05T05:25:13.676Z,7.90
2019-05-05T05:27:44.343Z,7.27
2019-05-05T05:30:13.998Z,8.10
2019-05-05T05:32:44.546Z,7.90
2019-05-05T05:35:14.201Z,7.33
2019-05-05T05:37:44.737Z,7.30
2019-05-05T05:40:23.584Z,7.73
2019-05-05T05:42:54.219Z,7.80
2019-05-05T05:45:43.549Z,7.90
2019-05-05T05:48:28.923Z,7.60
2019-05-05T05:51:00.048Z,7.33
2019-05-05T05:53:29.060Z,7.60
2019-05-05T05:55:58.168Z,7.87
2019-05-05T05:58:27.233Z,39.07
2019-05-05T06:00:57.743Z,7.80
2019-05-05T06:03:26.767Z,7.23
2019-05-05T06:05:55.822Z,7.97
2019-05-05T06:08:24.936Z,7.47
2019-05-05T06:10:54.738Z,9.90
2019-05-05T06:13:24.307Z,19.27
2019-05-05T06:15:53.791Z,6.60
2019-05-05T06:18:24.356Z,7.03
2019-05-05T06:20:53.865Z,7.17
2019-05-05T06:23:24.065Z,10.33
2019-05-05T06:25:55.208Z,8.23
2019-05-05T06:28:24.260Z,6.73
2019-05-05T06:30:54.679Z,10.07
2019-05-05T06:33:24.304Z,26.40
2019-05-05T06:35:53.826Z,7.03
2019-05-05T06:38:24.235Z,6.63
2019-05-05T06:41:04.702Z,6.93
2019-05-05T06:43:41.158Z,6.67
2019-05-05T06:46:28.251Z,6.20
2019-05-05T06:48:57.360Z,6.60
2019-05-05T06:51:26.411Z,7.23
2019-05-05T06:53:55.447Z,6.43
2019-05-05T06:56:24.662Z,7.13
2019-05-05T06:58:54.111Z,6.87
2019-05-05T07:01:24.769Z,8.07
2019-05-05T07:03:54.207Z,7.67
2019-05-05T07:06:23.992Z,8.37
2019-05-05T07:08:54.558Z,8.47
2019-05-05T07:11:23.983Z,8.23
2019-05-05T07:13:53.740Z,7.87
2019-05-05T07:16:24.367Z,8.00
2019-05-05T07:18:54.077Z,7.77
2019-05-05T07:21:23.812Z,8.00
2019-05-05T07:23:54.025Z,7.47
2019-05-05T07:26:23.736Z,7.63
2019-05-05T07:28:54.197Z,8.87
2019-05-05T07:31:23.906Z,7.73
2019-05-05T07:33:54.426Z,7.77
2019-05-05T07:36:44.519Z,7.87
2019-05-05T07:39:14.444Z,8.50
2019-05-05T07:41:44.801Z,8.27
2019-05-05T07:44:25.713Z,8.20
2019-05-05T07:46:45.289Z,8.30
2019-05-05T07:49:15.214Z,8.57
2019-05-05T07:51:44.481Z,9.30
2019-05-05T07:54:14.474Z,8.57
2019-05-05T07:56:44.458Z,8.97
2019-05-05T07:59:14.627Z,10.20
2019-05-05T08:01:46.521Z,10.10
2019-05-05T08:04:14.598Z,11.30
2019-05-05T08:06:44.535Z,12.00
2019-05-05T08:09:14.682Z,11.27
2019-05-05T08:11:43.899Z,12.90
2019-05-05T08:14:14.543Z,13.67
2019-05-05T08:16:53.612Z,13.67
2019-05-05T08:19:34.634Z,12.77
2019-05-05T08:22:04.393Z,12.57
2019-05-05T08:24:51.593Z,12.20
2019-05-05T08:27:38.698Z,12.60
2019-05-05T08:30:26.406Z,13.60
2019-05-05T08:32:55.817Z,13.77
2019-05-05T08:35:24.933Z,14.00
2019-05-05T08:37:54.369Z,15.13
2019-05-05T08:40:24.053Z,15.20
2019-05-05T08:42:53.900Z,15.97
2019-05-05T08:45:26.155Z,17.03
2019-05-05T08:47:54.313Z,19.90
2019-05-05T08:50:26.456Z,20.53
2019-05-05T08:52:54.333Z,19.33
2019-05-05T08:55:24.915Z,20.47
2019-05-05T08:57:54.267Z,22.20
2019-05-05T09:00:24.498Z,22.43
2019-05-05T09:02:54.354Z,20.30
2019-05-05T09:05:23.896Z,20.63
2019-05-05T09:07:54.763Z,19.50
2019-05-05T09:10:23.950Z,21.03
2019-05-05T09:12:54.286Z,20.97
2019-05-05T09:15:24.250Z,21.37
2019-05-05T09:17:54.443Z,23.17
2019-05-05T09:20:24.283Z,22.80
2019-05-05T09:22:54.588Z,22.87
2019-05-05T09:25:26.074Z,21.20
2019-05-05T09:28:05.548Z,20.23
2019-05-05T09:30:40.464Z,18.77
2019-05-05T09:33:09.660Z,18.30
2019-05-05T09:35:38.701Z,18.30
2019-05-05T09:38:07.949Z,15.33
2019-05-05T09:40:39.483Z,16.07
2019-05-05T09:43:09.895Z,15.17
2019-05-05T09:45:39.707Z,14.20
2019-05-05T09:48:08.986Z,13.53
2019-05-05T09:50:38.062Z,12.97
2019-05-05T09:53:07.226Z,12.30
2019-05-05T09:55:36.406Z,11.80
2019-05-05T09:58:05.698Z,12.17
2019-05-05T10:00:36.374Z,11.30
2019-05-05T10:03:05.509Z,10.53
2019-05-05T10:05:34.741Z,9.80
2019-05-05T10:08:03.937Z,10.43
2019-05-05T10:10:33.692Z,9.40
2019-05-05T10:13:04.154Z,8.60
2019-05-05T10:15:33.890Z,8.70
2019-05-05T10:18:03.504Z,8.23
2019-05-05T10:20:34.385Z,8.00
2019-05-05T10:23:03.829Z,7.47
2019-05-05T10:25:37.220Z,7.57
2019-05-05T10:28:06.544Z,7.70
2019-05-05T10:30:36.400Z,7.53
2019-05-05T10:33:05.653Z,8.17
2019-05-05T10:35:34.742Z,7.07
2019-05-05T10:38:04.028Z,6.47
2019-05-05T10:40:34.619Z,6.30
2019-05-05T10:43:04.733Z,5.87
2019-05-05T10:45:34.514Z,6.30
2019-05-05T10:48:04.204Z,6.13
2019-05-05T10:50:34.418Z,6.93
2019-05-05T10:53:04.648Z,6.23
2019-05-05T10:55:34.825Z,6.07
2019-05-05T10:58:04.177Z,6.30
2019-05-05T11:00:45.196Z,6.43
2019-05-05T11:03:15.171Z,5.57
2019-05-05T11:05:45.231Z,6.07
2019-05-05T11:08:14.883Z,6.60
2019-05-05T11:10:45.183Z,6.43
2019-05-05T11:13:14.504Z,5.97
2019-05-05T11:15:45.103Z,6.17
2019-05-05T11:18:15.106Z,5.87
2019-05-05T11:20:45.257Z,5.90
2019-05-05T11:23:15.153Z,5.30
2019-05-05T11:25:44.746Z,6.23
2019-05-05T11:28:14.220Z,7.67
2019-05-05T11:30:47.008Z,6.80
2019-05-05T11:33:29.626Z,6.90
2019-05-05T11:36:00.615Z,7.03
2019-05-05T11:38:29.632Z,6.70
2019-05-05T11:40:58.746Z,6.80
2019-05-05T11:43:27.814Z,6.30
2019-05-05T11:45:57.199Z,7.13
2019-05-05T11:48:26.217Z,6.83
2019-05-05T11:50:55.531Z,6.00
2019-05-05T11:53:25.206Z,6.17
2019-05-05T11:55:55.115Z,6.73
2019-05-05T11:58:26.132Z,6.00
2019-05-05T12:00:55.555Z,5.50
2019-05-05T12:03:24.721Z,5.90
2019-05-05T12:05:53.784Z,5.40
2019-05-05T12:08:23.877Z,5.63
2019-05-05T12:11:00.567Z,5.20
2019-05-05T12:13:29.781Z,5.17
2019-05-05T12:16:04.561Z,4.87
2019-05-05T12:18:34.550Z,5.03
2019-05-05T12:21:05.047Z,4.90
2019-05-05T12:23:34.803Z,5.60
2019-05-05T12:26:24.334Z,5.57
2019-05-05T12:28:55.105Z,4.43
2019-05-05T12:31:28.770Z,5.57
2019-05-05T12:33:58.269Z,5.60
2019-05-05T12:36:27.311Z,5.53
2019-05-05T12:38:56.359Z,5.90
2019-05-05T12:41:25.512Z,6.07
2019-05-05T12:43:55.090Z,5.63
2019-05-05T12:46:44.102Z,5.83
2019-05-05T12:49:13.979Z,5.80
2019-05-05T12:51:43.641Z,5.90
2019-05-05T12:54:14.645Z,5.77
2019-05-05T12:56:44.536Z,5.83
2019-05-05T12:59:15.643Z,6.20
2019-05-05T13:01:44.875Z,5.77
2019-05-05T13:04:14.256Z,5.57
2019-05-05T13:06:45.052Z,5.43
2019-05-05T13:09:16.190Z,4.40
2019-05-05T13:11:45.206Z,4.57
2019-05-05T13:14:14.398Z,4.83
2019-05-05T13:16:52.374Z,4.83
2019-05-05T13:19:16.589Z,14.43
2019-05-05T13:21:49.938Z,4.47
2019-05-05T13:24:29.763Z,4.20
2019-05-05T13:27:19.098Z,3.70
2019-05-05T13:29:44.280Z,4.00
2019-05-05T13:32:14.182Z,3.93
2019-05-05T13:34:43.860Z,3.80
2019-05-05T13:37:14.090Z,4.37
2019-05-05T13:39:44.534Z,4.10
2019-05-05T13:42:14.001Z,4.30
2019-05-05T13:44:50.665Z,4.80
2019-05-05T13:47:19.782Z,4.90
2019-05-05T13:49:49.952Z,5.23
2019-05-05T13:52:19.008Z,5.30
2019-05-05T13:54:48.263Z,5.20
2019-05-05T13:57:17.290Z,5.07
2019-05-05T13:59:50.914Z,5.47
2019-05-05T14:02:20.801Z,5.80
2019-05-05T14:04:49.975Z,5.43
2019-05-05T14:07:24.465Z,6.13
2019-05-05T14:09:54.930Z,8.17
2019-05-05T14:12:24.602Z,5.63
2019-05-05T14:15:03.938Z,6.10
2019-05-05T14:17:33.635Z,6.60
2019-05-05T14:20:11.555Z,5.30
2019-05-05T14:22:35.967Z,5.30
2019-05-05T14:25:08.329Z,5.20
2019-05-05T14:27:37.426Z,4.43
2019-05-05T14:30:23.625Z,4.57
2019-05-05T14:32:54.533Z,5.30
2019-05-05T14:35:25.594Z,4.73
2019-05-05T14:37:56.325Z,4.63
2019-05-05T14:40:25.637Z,4.20
2019-05-05T14:42:54.714Z,4.80
2019-05-05T14:45:24.104Z,5.40
2019-05-05T14:47:53.665Z,5.10
2019-05-05T14:50:24.211Z,4.57
2019-05-05T14:52:54.164Z,3.60
2019-05-05T14:55:25.455Z,4.00
2019-05-05T14:57:54.270Z,3.80
2019-05-05T15:00:25.220Z,3.70
2019-05-05T15:02:55.182Z,3.70
2019-05-05T15:05:44.474Z,3.40
2019-05-05T15:08:18.240Z,4.00
2019-05-05T15:10:58.056Z,3.60
2019-05-05T15:13:27.139Z,3.77
2019-05-05T15:15:56.413Z,3.70
2019-05-05T15:18:25.518Z,3.27
2019-05-05T15:20:54.909Z,3.40
2019-05-05T15:23:24.184Z,3.40
2019-05-05T15:25:53.971Z,3.73
2019-05-05T15:28:24.498Z,4.37
2019-05-05T15:30:54.636Z,4.03
2019-05-05T15:33:24.436Z,3.97
2019-05-05T15:36:14.682Z,4.20
2019-05-05T15:38:43.921Z,4.00
2019-05-05T15:41:14.528Z,3.60
2019-05-05T15:43:44.171Z,8.30
2019-05-05T15:46:15.117Z,4.43
2019-05-05T15:48:44.081Z,4.90
2019-05-05T15:51:14.460Z,5.93
2019-05-05T15:53:43.844Z,6.90
2019-05-05T15:56:13.955Z,5.87
2019-05-05T15:58:43.509Z,6.20
2019-05-05T16:01:14.279Z,5.77
2019-05-05T16:03:43.681Z,5.60
2019-05-05T16:06:14.265Z,6.03
2019-05-05T16:08:44.494Z,5.77
2019-05-05T16:11:14.314Z,5.40
2019-05-05T16:13:44.034Z,5.70
2019-05-05T16:16:23.927Z,6.03
2019-05-05T16:19:05.610Z,5.00
2019-05-05T16:21:45.208Z,4.90
2019-05-05T16:24:16.166Z,4.70
2019-05-05T16:26:45.402Z,4.60
2019-05-05T16:29:14.859Z,4.27
2019-05-05T16:31:44.007Z,6.33
2019-05-05T16:34:14.298Z,7.50
2019-05-05T16:36:44.048Z,6.63
2019-05-05T16:39:13.849Z,5.70
2019-05-05T16:41:44.238Z,5.93
2019-05-05T16:44:15.566Z,7.33
2019-05-05T16:46:44.157Z,6.13
2019-05-05T16:49:14.018Z,6.03
2019-05-05T16:51:47.792Z,5.07
2019-05-05T16:54:18.463Z,6.13
2019-05-05T16:56:47.899Z,6.47
2019-05-05T16:59:16.910Z,5.43
2019-05-05T17:01:46.094Z,6.07
2019-05-05T17:04:15.138Z,6.27
2019-05-05T17:06:45.829Z,5.60
2019-05-05T17:09:15.115Z,4.90
2019-05-05T17:11:45.800Z,5.03
2019-05-05T17:14:16.470Z,4.60
2019-05-05T17:16:50.198Z,4.60
2019-05-05T17:19:23.530Z,5.13
2019-05-05T17:21:54.228Z,5.20
2019-05-05T17:24:23.975Z,4.97
2019-05-05T17:26:54.980Z,5.10
2019-05-05T17:29:24.327Z,4.60
2019-05-05T17:31:54.093Z,5.00
2019-05-05T17:34:24.677Z,4.63
2019-05-05T17:36:54.216Z,4.30
2019-05-05T17:39:24.934Z,4.13
2019-05-05T17:41:58.558Z,4.83
2019-05-05T17:44:33.685Z,4.50
2019-05-05T17:47:24.350Z,3.60
2019-05-05T17:50:06.969Z,4.20
2019-05-05T17:52:37.689Z,4.00
2019-05-05T17:55:08.477Z,4.07
2019-05-05T17:57:37.498Z,4.40
2019-05-05T18:00:08.897Z,5.20
2019-05-05T18:02:37.987Z,4.53
2019-05-05T18:05:07.416Z,4.70
2019-05-05T18:07:38.095Z,4.90
2019-05-05T18:10:13.494Z,4.33
2019-05-05T18:12:56.675Z,4.67
2019-05-05T18:15:43.576Z,4.80
2019-05-05T18:18:13.930Z,6.00
2019-05-05T18:20:44.945Z,7.77
2019-05-05T18:23:14.468Z,5.87
2019-05-05T18:25:44.201Z,4.40
2019-05-05T18:28:19.711Z,5.50
2019-05-05T18:30:45.359Z,3.67
2019-05-05T18:33:14.837Z,3.87
2019-05-05T18:35:44.356Z,3.80
2019-05-05T18:38:13.869Z,3.80
2019-05-05T18:40:43.535Z,3.70
2019-05-05T18:43:14.401Z,4.10
2019-05-05T18:45:44.154Z,3.60
2019-05-05T18:48:14.272Z,3.77
2019-05-05T18:50:43.377Z,3.93
2019-05-05T18:53:14.038Z,3.90
2019-05-05T18:55:44.632Z,3.83
2019-05-05T18:58:26.259Z,3.77
2019-05-05T19:00:59.707Z,3.40
2019-05-05T19:03:30.462Z,4.00
2019-05-05T19:06:01.290Z,3.83
2019-05-05T19:08:31.998Z,4.23
2019-05-05T19:11:03.715Z,6.83
2019-05-05T19:13:35.518Z,4.70
2019-05-05T19:16:04.683Z,4.80
2019-05-05T19:18:35.921Z,4.80
2019-05-05T19:21:07.148Z,5.10
2019-05-05T19:23:36.210Z,4.50
2019-05-05T19:26:07.596Z,4.57
2019-05-05T19:28:44.264Z,4.40
2019-05-05T19:31:07.137Z,4.90
2019-05-05T19:33:36.272Z,4.60
2019-05-05T19:36:05.493Z,4.87
2019-05-05T19:38:34.754Z,4.73
2019-05-05T19:41:04.142Z,4.67
2019-05-05T19:43:34.019Z,4.80
2019-05-05T19:46:05.465Z,4.63
2019-05-05T19:48:34.642Z,4.83
2019-05-05T19:51:05.768Z,4.80
2019-05-05T19:53:35.570Z,5.13
2019-05-05T19:56:04.977Z,5.17
2019-05-05T19:58:36.354Z,5.30
2019-05-05T20:01:05.090Z,5.60
2019-05-05T20:03:35.123Z,6.10
2019-05-05T20:06:05.337Z,5.97
2019-05-05T20:08:41.067Z,5.37
2019-05-05T20:11:05.797Z,5.53
2019-05-05T20:13:35.017Z,5.33
2019-05-05T20:16:20.928Z,5.70
2019-05-05T20:18:50.524Z,6.00
2019-05-05T20:21:19.622Z,6.40
2019-05-05T20:23:48.754Z,6.40
2019-05-05T20:26:17.765Z,8.23
2019-05-05T20:28:46.891Z,6.27
2019-05-05T20:31:15.931Z,5.60
2019-05-05T20:33:58.178Z,6.10
2019-05-05T20:36:29.338Z,6.90
2019-05-05T20:38:58.390Z,5.90
2019-05-05T20:41:27.542Z,6.03
2019-05-05T20:43:56.711Z,6.73
2019-05-05T20:46:25.737Z,6.97
2019-05-05T20:48:55.046Z,9.67
2019-05-05T20:51:24.347Z,10.40
2019-05-05T20:53:54.206Z,10.67
2019-05-05T20:56:23.860Z,6.77
2019-05-05T20:58:54.811Z,6.23
2019-05-05T21:01:24.605Z,6.60
2019-05-05T21:03:53.991Z,6.40
2019-05-05T21:06:24.571Z,6.20
2019-05-05T21:08:54.135Z,6.47
2019-05-05T21:11:24.634Z,6.43
2019-05-05T21:13:54.436Z,6.77
2019-05-05T21:16:23.840Z,7.37
2019-05-05T21:18:53.879Z,6.80
2019-05-05T21:21:25.033Z,6.67
2019-05-05T21:23:55.714Z,6.30
2019-05-05T21:26:26.391Z,6.63
2019-05-05T21:28:55.470Z,6.50
2019-05-05T21:31:24.488Z,6.50
2019-05-05T21:33:54.763Z,6.70
2019-05-05T21:36:24.358Z,6.50
2019-05-05T21:38:54.827Z,6.73
2019-05-05T21:41:24.507Z,7.40
2019-05-05T21:43:54.175Z,6.80
2019-05-05T21:46:24.023Z,7.00
2019-05-05T21:48:54.328Z,7.23
2019-05-05T21:51:28.241Z,7.00
2019-05-05T21:53:58.927Z,8.07
2019-05-05T21:56:45.924Z,7.30
2019-05-05T21:59:14.984Z,7.13
2019-05-05T22:01:49.059Z,6.63
2019-05-05T22:04:15.252Z,7.07
2019-05-05T22:06:44.291Z,7.37
2019-05-05T22:09:14.677Z,7.37
2019-05-05T22:11:44.295Z,6.53
2019-05-05T22:14:13.985Z,6.50
2019-05-05T22:16:44.597Z,7.63
2019-05-05T22:19:14.576Z,6.90
2019-05-05T22:21:45.587Z,7.00
2019-05-05T22:24:22.315Z,6.50
2019-05-05T22:26:54.192Z,6.57
2019-05-05T22:29:24.966Z,6.50
2019-05-05T22:31:54.584Z,6.70
2019-05-05T22:34:24.124Z,6.80
2019-05-05T22:36:53.425Z,7.00
2019-05-05T22:39:24.367Z,6.77
2019-05-05T22:41:54.329Z,8.20
2019-05-05T22:44:24.362Z,8.27
2019-05-05T22:46:53.939Z,9.27
2019-05-05T22:49:24.159Z,8.83
2019-05-05T22:51:54.144Z,7.13
2019-05-05T22:54:24.126Z,7.40
2019-05-05T22:56:53.901Z,7.47
2019-05-05T22:59:24.177Z,6.80
2019-05-05T23:01:54.201Z,6.53
2019-05-05T23:04:25.150Z,7.00
2019-05-05T23:07:03.686Z,6.73
2019-05-05T23:09:32.326Z,6.80
2019-05-05T23:12:01.379Z,7.00
2019-05-05T23:14:30.523Z,6.70
2019-05-05T23:17:05.615Z,6.37
2019-05-05T23:19:42.051Z,5.93
2019-05-05T23:22:14.622Z,6.30
2019-05-05T23:24:45.290Z,6.40
2019-05-05T23:27:34.224Z,6.80
2019-05-05T23:30:03.243Z,6.10
2019-05-05T23:32:34.066Z,6.50
2019-05-05T23:35:02.962Z,6.03
2019-05-05T23:37:34.213Z,6.13
2019-05-05T23:40:03.767Z,6.33
2019-05-05T23:42:33.833Z,6.03
2019-05-05T23:45:04.427Z,6.20
2019-05-05T23:47:34.536Z,6.17
2019-05-05T23:50:05.599Z,5.83
2019-05-05T23:52:35.064Z,6.63
2019-05-05T23:55:06.298Z,6.30
2019-05-05T23:57:35.344Z,5.57
